sensor_id;sensor_type;location;lat;lon;timestamp;P1;durP1;ratioP1;P2;durP2;ratioP2
67344;SDS011;54230;52.402;6.276;2024-03-08T00:00:00;35.8;;;16.2;;
67344;SDS011;54230;52.402;6.276;2024-03-08T00:05:00;37.8;;;15.9;;
67344;SDS011;54230;52.402;6.276;2024-03-08T00:10:00;37.3;;;17.2;;
67344;SDS011;54230;52.402;6.276;2024-03-08T00:15:00;36.6;;;16.3;;
67344;SDS011;54230;52.402;6.276;2024-03-08T00:20:00;38.1;;;16.3;;
67344;SDS011;54230;52.402;6.276;2024-03-08T00:25:00;36.1;;;16.5;;
67344;SDS011;54230;52.402;6.276;2024-03-08T00:30:00;38.0;;;17.8;;
67344;SDS011;54230;52.402;6.276;2024-03-08T00:35:00;38.7;;;18.8;;
67344;SDS011;54230;52.402;6.276;2024-03-08T00:40:00;38.3;;;18.0;;
67344;SDS011;54230;52.402;6.276;2024-03-08T00:45:00;40.9;;;18.8;;
67344;SDS011;54230;52.402;6.276;2024-03-08T00:50:00;40.2;;;19.7;;
67344;SDS011;54230;52.402;6.276;2024-03-08T00:55:00;41.3;;;21.2;;
67344;SDS011;54230;52.402;6.276;2024-03-08T01:00:02;45.1;;;21.6;;
67344;SDS011;54230;52.402;6.276;2024-03-08T01:05:00;39.4;;;21.1;;
67344;SDS011;54230;52.402;6.276;2024-03-08T01:10:00;41.3;;;22.6;;
67344;SDS011;54230;52.402;6.276;2024-03-08T01:15:00;42.7;;;24.0;;
67344;SDS011;54230;52.402;6.276;2024-03-08T01:20:00;40.5;;;22.4;;
67344;SDS011;54230;52.402;6.276;2024-03-08T01:25:00;42.9;;;25.2;;
67344;SDS011;54230;52.402;6.276;2024-03-08T01:30:00;44.5;;;26.4;;
67344;SDS011;54230;52.402;6.276;2024-03-08T01:35:00;44.4;;;28.2;;
67344;SDS011;54230;52.402;6.276;2024-03-08T01:40:00;44.1;;;28.8;;
67344;SDS011;54230;52.402;6.276;2024-03-08T01:45:00;47.6;;;30.4;;
67344;SDS011;54230;52.402;6.276;2024-03-08T01:50:00;48.5;;;31.2;;
67344;SDS011;54230;52.402;6.276;2024-03-08T01:55:00;44.8;;;28.1;;
67344;SDS011;54230;52.402;6.276;2024-03-08T02:00:00;49.8;;;31.5;;
67344;SDS011;54230;52.402;6.276;2024-03-08T02:05:00;52.7;;;33.1;;
67344;SDS011;54230;52.402;6.276;2024-03-08T02:10:00;46.9;;;30.1;;
67344;SDS011;54230;52.402;6.276;2024-03-08T02:15:00;49.0;;;32.3;;
67344;SDS011;54230;52.402;6.276;2024-03-08T02:20:00;49.6;;;31.9;;
67344;SDS011;54230;52.402;6.276;2024-03-08T02:25:00;48.2;;;31.5;;
67344;SDS011;54230;52.402;6.276;2024-03-08T02:30:00;47.8;;;31.0;;
67344;SDS011;54230;52.402;6.276;2024-03-08T02:35:00;53.5;;;33.9;;
67344;SDS011;54230;52.402;6.276;2024-03-08T02:40:00;50.0;;;33.7;;
67344;SDS011;54230;52.402;6.276;2024-03-08T02:45:00;50.0;;;33.3;;
67344;SDS011;54230;52.402;6.276;2024-03-08T02:50:00;51.0;;;32.6;;
67344;SDS011;54230;52.402;6.276;2024-03-08T02:55:00;50.6;;;31.9;;
67344;SDS011;54230;52.402;6.276;2024-03-08T03:00:00;51.6;;;32.4;;
67344;SDS011;54230;52.402;6.276;2024-03-08T03:05:00;52.7;;;34.8;;
67344;SDS011;54230;52.402;6.276;2024-03-08T03:10:00;53.2;;;34.6;;
67344;SDS011;54230;52.402;6.276;2024-03-08T03:15:00;53.3;;;34.3;;
67344;SDS011;54230;52.402;6.276;2024-03-08T03:20:00;50.7;;;34.3;;
67344;SDS011;54230;52.402;6.276;2024-03-08T03:25:00;48.8;;;32.6;;
67344;SDS011;54230;52.402;6.276;2024-03-08T03:30:00;48.8;;;32.8;;
67344;SDS011;54230;52.402;6.276;2024-03-08T03:35:00;54.7;;;35.0;;
67344;SDS011;54230;52.402;6.276;2024-03-08T03:40:00;52.7;;;34.7;;
67344;SDS011;54230;52.402;6.276;2024-03-08T03:45:00;52.3;;;35.0;;
67344;SDS011;54230;52.402;6.276;2024-03-08T03:50:00;51.4;;;33.4;;
67344;SDS011;54230;52.402;6.276;2024-03-08T03:55:00;53.4;;;34.5;;
67344;SDS011;54230;52.402;6.276;2024-03-08T04:00:00;52.6;;;35.8;;
67344;SDS011;54230;52.402;6.276;2024-03-08T04:05:00;53.6;;;36.6;;
67344;SDS011;54230;52.402;6.276;2024-03-08T04:10:00;56.3;;;38.4;;
67344;SDS011;54230;52.402;6.276;2024-03-08T04:15:00;51.1;;;34.1;;
67344;SDS011;54230;52.402;6.276;2024-03-08T04:20:00;51.7;;;34.2;;
67344;SDS011;54230;52.402;6.276;2024-03-08T04:25:00;51.9;;;34.2;;
67344;SDS011;54230;52.402;6.276;2024-03-08T04:30:00;53.5;;;35.5;;
67344;SDS011;54230;52.402;6.276;2024-03-08T04:35:00;56.8;;;36.0;;
67344;SDS011;54230;52.402;6.276;2024-03-08T04:40:00;53.4;;;35.8;;
67344;SDS011;54230;52.402;6.276;2024-03-08T04:45:00;54.1;;;37.4;;
67344;SDS011;54230;52.402;6.276;2024-03-08T04:50:00;52.8;;;36.0;;
67344;SDS011;54230;52.402;6.276;2024-03-08T04:55:00;57.6;;;38.5;;
67344;SDS011;54230;52.402;6.276;2024-03-08T05:00:00;58.2;;;37.3;;
67344;SDS011;54230;52.402;6.276;2024-03-08T05:05:00;55.0;;;38.0;;
67344;SDS011;54230;52.402;6.276;2024-03-08T05:10:00;55.3;;;38.4;;
67344;SDS011;54230;52.402;6.276;2024-03-08T05:15:00;56.6;;;38.3;;
67344;SDS011;54230;52.402;6.276;2024-03-08T05:20:00;57.8;;;37.0;;
67344;SDS011;54230;52.402;6.276;2024-03-08T05:25:00;56.9;;;38.9;;
67344;SDS011;54230;52.402;6.276;2024-03-08T05:30:00;58.0;;;38.3;;
67344;SDS011;54230;52.402;6.276;2024-03-08T05:35:00;57.1;;;37.7;;
67344;SDS011;54230;52.402;6.276;2024-03-08T05:40:00;59.1;;;38.1;;
67344;SDS011;54230;52.402;6.276;2024-03-08T05:45:00;60.4;;;40.3;;
67344;SDS011;54230;52.402;6.276;2024-03-08T05:50:00;57.9;;;38.8;;
67344;SDS011;54230;52.402;6.276;2024-03-08T05:55:00;58.6;;;37.9;;
67344;SDS011;54230;52.402;6.276;2024-03-08T06:00:00;57.4;;;39.6;;
67344;SDS011;54230;52.402;6.276;2024-03-08T06:05:00;56.7;;;39.0;;
67344;SDS011;54230;52.402;6.276;2024-03-08T06:10:00;60.5;;;39.7;;
67344;SDS011;54230;52.402;6.276;2024-03-08T06:15:00;58.8;;;40.2;;
67344;SDS011;54230;52.402;6.276;2024-03-08T06:20:00;60.9;;;38.4;;
67344;SDS011;54230;52.402;6.276;2024-03-08T06:25:00;54.8;;;37.6;;
67344;SDS011;54230;52.402;6.276;2024-03-08T06:30:00;59.4;;;39.0;;
67344;SDS011;54230;52.402;6.276;2024-03-08T06:35:00;56.5;;;37.6;;
67344;SDS011;54230;52.402;6.276;2024-03-08T06:40:00;57.7;;;37.2;;
67344;SDS011;54230;52.402;6.276;2024-03-08T06:45:00;58.0;;;39.3;;
67344;SDS011;54230;52.402;6.276;2024-03-08T06:50:00;60.7;;;39.1;;
67344;SDS011;54230;52.402;6.276;2024-03-08T06:55:00;60.1;;;39.6;;
67344;SDS011;54230;52.402;6.276;2024-03-08T07:00:00;56.0;;;37.1;;
67344;SDS011;54230;52.402;6.276;2024-03-08T07:05:00;58.8;;;38.4;;
67344;SDS011;54230;52.402;6.276;2024-03-08T07:10:00;56.3;;;38.0;;
67344;SDS011;54230;52.402;6.276;2024-03-08T07:15:00;59.4;;;37.3;;
67344;SDS011;54230;52.402;6.276;2024-03-08T07:20:00;56.0;;;36.5;;
67344;SDS011;54230;52.402;6.276;2024-03-08T07:25:00;56.2;;;38.9;;
67344;SDS011;54230;52.402;6.276;2024-03-08T07:30:00;57.7;;;36.6;;
67344;SDS011;54230;52.402;6.276;2024-03-08T07:35:00;58.5;;;37.8;;
67344;SDS011;54230;52.402;6.276;2024-03-08T07:40:00;57.4;;;36.6;;
67344;SDS011;54230;52.402;6.276;2024-03-08T07:45:00;55.5;;;36.0;;
67344;SDS011;54230;52.402;6.276;2024-03-08T07:50:00;55.4;;;36.1;;
67344;SDS011;54230;52.402;6.276;2024-03-08T07:55:00;50.7;;;32.1;;
67344;SDS011;54230;52.402;6.276;2024-03-08T08:00:00;52.0;;;32.2;;
67344;SDS011;54230;52.402;6.276;2024-03-08T08:05:00;47.4;;;29.8;;
67344;SDS011;54230;52.402;6.276;2024-03-08T08:10:00;48.5;;;26.2;;
67344;SDS011;54230;52.402;6.276;2024-03-08T08:15:00;43.8;;;22.8;;
67344;SDS011;54230;52.402;6.276;2024-03-08T08:20:00;44.5;;;21.3;;
67344;SDS011;54230;52.402;6.276;2024-03-08T08:25:00;42.3;;;21.8;;
67344;SDS011;54230;52.402;6.276;2024-03-08T08:30:00;39.6;;;19.9;;
67344;SDS011;54230;52.402;6.276;2024-03-08T08:35:00;41.4;;;19.8;;
67344;SDS011;54230;52.402;6.276;2024-03-08T08:40:00;41.7;;;19.8;;
67344;SDS011;54230;52.402;6.276;2024-03-08T08:45:00;42.5;;;19.9;;
67344;SDS011;54230;52.402;6.276;2024-03-08T08:50:00;40.8;;;20.0;;
67344;SDS011;54230;52.402;6.276;2024-03-08T08:55:00;42.1;;;20.5;;
67344;SDS011;54230;52.402;6.276;2024-03-08T09:00:00;40.6;;;19.3;;
67344;SDS011;54230;52.402;6.276;2024-03-08T09:05:00;40.4;;;19.6;;
67344;SDS011;54230;52.402;6.276;2024-03-08T09:10:00;40.2;;;19.7;;
67344;SDS011;54230;52.402;6.276;2024-03-08T09:15:00;39.5;;;19.4;;
67344;SDS011;54230;52.402;6.276;2024-03-08T09:20:00;40.0;;;20.0;;
67344;SDS011;54230;52.402;6.276;2024-03-08T09:25:00;40.6;;;19.8;;
67344;SDS011;54230;52.402;6.276;2024-03-08T09:30:00;38.8;;;19.4;;
67344;SDS011;54230;52.402;6.276;2024-03-08T09:35:00;40.7;;;20.0;;
67344;SDS011;54230;52.402;6.276;2024-03-08T09:40:00;40.1;;;19.2;;
67344;SDS011;54230;52.402;6.276;2024-03-08T09:45:00;40.9;;;19.9;;
67344;SDS011;54230;52.402;6.276;2024-03-08T09:50:00;39.0;;;18.7;;
67344;SDS011;54230;52.402;6.276;2024-03-08T09:55:00;38.4;;;18.6;;
67344;SDS011;54230;52.402;6.276;2024-03-08T10:00:00;36.5;;;18.6;;
67344;SDS011;54230;52.402;6.276;2024-03-08T10:05:00;36.2;;;18.7;;
67344;SDS011;54230;52.402;6.276;2024-03-08T10:10:00;40.5;;;19.6;;
67344;SDS011;54230;52.402;6.276;2024-03-08T10:15:00;38.2;;;19.0;;
67344;SDS011;54230;52.402;6.276;2024-03-08T10:20:00;38.9;;;20.0;;
67344;SDS011;54230;52.402;6.276;2024-03-08T10:25:00;38.1;;;19.1;;
67344;SDS011;54230;52.402;6.276;2024-03-08T10:30:00;37.0;;;18.5;;
67344;SDS011;54230;52.402;6.276;2024-03-08T10:35:00;38.9;;;19.4;;
67344;SDS011;54230;52.402;6.276;2024-03-08T10:40:02;37.7;;;19.5;;
67344;SDS011;54230;52.402;6.276;2024-03-08T10:45:02;36.8;;;19.0;;
67344;SDS011;54230;52.402;6.276;2024-03-08T10:50:04;36.2;;;18.7;;
67344;SDS011;54230;52.402;6.276;2024-03-08T10:55:00;34.8;;;18.0;;
67344;SDS011;54230;52.402;6.276;2024-03-08T11:00:00;36.7;;;18.7;;
67344;SDS011;54230;52.402;6.276;2024-03-08T11:05:00;35.7;;;18.8;;
67344;SDS011;54230;52.402;6.276;2024-03-08T11:10:02;35.8;;;18.3;;
67344;SDS011;54230;52.402;6.276;2024-03-08T11:15:00;38.7;;;19.8;;
67344;SDS011;54230;52.402;6.276;2024-03-08T11:20:00;38.1;;;19.9;;
67344;SDS011;54230;52.402;6.276;2024-03-08T11:25:01;37.8;;;19.2;;
67344;SDS011;54230;52.402;6.276;2024-03-08T11:30:00;35.9;;;18.3;;
67344;SDS011;54230;52.402;6.276;2024-03-08T11:35:00;37.6;;;19.3;;
67344;SDS011;54230;52.402;6.276;2024-03-08T11:40:00;37.5;;;19.4;;
67344;SDS011;54230;52.402;6.276;2024-03-08T11:45:00;33.0;;;18.0;;
67344;SDS011;54230;52.402;6.276;2024-03-08T11:50:00;37.0;;;19.1;;
67344;SDS011;54230;52.402;6.276;2024-03-08T11:55:00;36.8;;;19.0;;
67344;SDS011;54230;52.402;6.276;2024-03-08T12:00:00;34.8;;;18.2;;
67344;SDS011;54230;52.402;6.276;2024-03-08T12:05:00;33.7;;;18.3;;
67344;SDS011;54230;52.402;6.276;2024-03-08T12:15:00;34.4;;;17.9;;
67344;SDS011;54230;52.402;6.276;2024-03-08T12:20:10;31.3;;;17.3;;
67344;SDS011;54230;52.402;6.276;2024-03-08T12:25:03;34.1;;;17.7;;
67344;SDS011;54230;52.402;6.276;2024-03-08T12:35:00;32.3;;;18.2;;
67344;SDS011;54230;52.402;6.276;2024-03-08T12:40:00;32.5;;;17.6;;
67344;SDS011;54230;52.402;6.276;2024-03-08T12:45:00;35.6;;;18.1;;
67344;SDS011;54230;52.402;6.276;2024-03-08T12:50:00;31.9;;;17.5;;
67344;SDS011;54230;52.402;6.276;2024-03-08T12:55:00;32.4;;;17.9;;
67344;SDS011;54230;52.402;6.276;2024-03-08T13:00:00;32.2;;;17.4;;
67344;SDS011;54230;52.402;6.276;2024-03-08T13:05:00;32.2;;;18.0;;
67344;SDS011;54230;52.402;6.276;2024-03-08T13:10:00;32.6;;;17.7;;
67344;SDS011;54230;52.402;6.276;2024-03-08T13:15:00;31.5;;;17.9;;
67344;SDS011;54230;52.402;6.276;2024-03-08T13:20:00;31.5;;;17.1;;
67344;SDS011;54230;52.402;6.276;2024-03-08T13:25:00;31.5;;;17.2;;
67344;SDS011;54230;52.402;6.276;2024-03-08T13:30:00;33.0;;;17.1;;
67344;SDS011;54230;52.402;6.276;2024-03-08T13:35:00;30.2;;;16.9;;
67344;SDS011;54230;52.402;6.276;2024-03-08T13:40:00;30.5;;;16.9;;
67344;SDS011;54230;52.402;6.276;2024-03-08T13:45:00;30.1;;;16.7;;
67344;SDS011;54230;52.402;6.276;2024-03-08T13:50:00;28.4;;;16.2;;
67344;SDS011;54230;52.402;6.276;2024-03-08T13:55:00;28.8;;;15.5;;
67344;SDS011;54230;52.402;6.276;2024-03-08T14:00:00;27.6;;;15.3;;
67344;SDS011;54230;52.402;6.276;2024-03-08T14:05:00;27.1;;;15.2;;
67344;SDS011;54230;52.402;6.276;2024-03-08T14:10:00;27.0;;;14.9;;
67344;SDS011;54230;52.402;6.276;2024-03-08T14:15:00;29.6;;;15.8;;
67344;SDS011;54230;52.402;6.276;2024-03-08T14:20:00;27.9;;;15.7;;
67344;SDS011;54230;52.402;6.276;2024-03-08T14:25:00;30.6;;;15.5;;
67344;SDS011;54230;52.402;6.276;2024-03-08T14:30:00;27.2;;;15.4;;
67344;SDS011;54230;52.402;6.276;2024-03-08T14:35:00;27.2;;;15.5;;
67344;SDS011;54230;52.402;6.276;2024-03-08T14:40:00;27.0;;;15.9;;
67344;SDS011;54230;52.402;6.276;2024-03-08T14:45:00;27.6;;;15.9;;
67344;SDS011;54230;52.402;6.276;2024-03-08T14:50:00;28.7;;;16.1;;
67344;SDS011;54230;52.402;6.276;2024-03-08T14:55:00;31.7;;;16.7;;
67344;SDS011;54230;52.402;6.276;2024-03-08T15:00:00;28.0;;;16.7;;
67344;SDS011;54230;52.402;6.276;2024-03-08T15:05:00;26.7;;;16.3;;
67344;SDS011;54230;52.402;6.276;2024-03-08T15:10:00;29.3;;;17.0;;
67344;SDS011;54230;52.402;6.276;2024-03-08T15:15:00;28.7;;;16.6;;
67344;SDS011;54230;52.402;6.276;2024-03-08T15:20:00;30.0;;;17.3;;
67344;SDS011;54230;52.402;6.276;2024-03-08T15:25:00;29.5;;;16.6;;
67344;SDS011;54230;52.402;6.276;2024-03-08T15:30:00;29.3;;;17.6;;
67344;SDS011;54230;52.402;6.276;2024-03-08T15:35:00;30.5;;;17.2;;
67344;SDS011;54230;52.402;6.276;2024-03-08T15:40:00;29.5;;;17.2;;
67344;SDS011;54230;52.402;6.276;2024-03-08T15:45:00;31.7;;;17.6;;
67344;SDS011;54230;52.402;6.276;2024-03-08T15:50:00;31.4;;;17.4;;
67344;SDS011;54230;52.402;6.276;2024-03-08T15:55:00;31.0;;;17.5;;
67344;SDS011;54230;52.402;6.276;2024-03-08T16:00:00;30.0;;;16.5;;
67344;SDS011;54230;52.402;6.276;2024-03-08T16:05:00;31.4;;;17.1;;
67344;SDS011;54230;52.402;6.276;2024-03-08T16:10:00;27.7;;;16.2;;
67344;SDS011;54230;52.402;6.276;2024-03-08T16:15:00;30.8;;;17.1;;
67344;SDS011;54230;52.402;6.276;2024-03-08T16:20:00;29.9;;;16.2;;
67344;SDS011;54230;52.402;6.276;2024-03-08T16:25:00;28.9;;;16.5;;
67344;SDS011;54230;52.402;6.276;2024-03-08T16:30:00;29.1;;;16.4;;
67344;SDS011;54230;52.402;6.276;2024-03-08T16:35:00;29.8;;;16.2;;
67344;SDS011;54230;52.402;6.276;2024-03-08T16:40:00;28.3;;;16.1;;
67344;SDS011;54230;52.402;6.276;2024-03-08T16:45:00;33.7;;;17.2;;
67344;SDS011;54230;52.402;6.276;2024-03-08T16:50:00;31.1;;;16.5;;
67344;SDS011;54230;52.402;6.276;2024-03-08T16:55:00;30.3;;;15.9;;
67344;SDS011;54230;52.402;6.276;2024-03-08T17:00:00;30.6;;;16.2;;
67344;SDS011;54230;52.402;6.276;2024-03-08T17:05:00;31.1;;;16.1;;
67344;SDS011;54230;52.402;6.276;2024-03-08T17:10:00;27.3;;;15.4;;
67344;SDS011;54230;52.402;6.276;2024-03-08T17:15:00;31.5;;;16.8;;
67344;SDS011;54230;52.402;6.276;2024-03-08T17:20:00;31.7;;;17.9;;
67344;SDS011;54230;52.402;6.276;2024-03-08T17:25:00;31.7;;;17.2;;
67344;SDS011;54230;52.402;6.276;2024-03-08T17:30:01;31.7;;;16.7;;
67344;SDS011;54230;52.402;6.276;2024-03-08T17:35:00;36.0;;;17.6;;
67344;SDS011;54230;52.402;6.276;2024-03-08T17:40:00;33.2;;;17.7;;
67344;SDS011;54230;52.402;6.276;2024-03-08T17:45:00;31.7;;;17.5;;
67344;SDS011;54230;52.402;6.276;2024-03-08T17:50:00;38.1;;;17.3;;
67344;SDS011;54230;52.402;6.276;2024-03-08T17:55:00;32.9;;;17.6;;
67344;SDS011;54230;52.402;6.276;2024-03-08T18:00:00;31.4;;;17.2;;
67344;SDS011;54230;52.402;6.276;2024-03-08T18:05:00;31.9;;;17.5;;
67344;SDS011;54230;52.402;6.276;2024-03-08T18:10:00;34.1;;;17.3;;
67344;SDS011;54230;52.402;6.276;2024-03-08T18:15:00;32.5;;;17.1;;
67344;SDS011;54230;52.402;6.276;2024-03-08T18:20:00;35.8;;;18.0;;
67344;SDS011;54230;52.402;6.276;2024-03-08T18:25:00;33.0;;;17.3;;
67344;SDS011;54230;52.402;6.276;2024-03-08T18:30:00;33.0;;;17.3;;
67344;SDS011;54230;52.402;6.276;2024-03-08T18:35:00;33.7;;;18.1;;
67344;SDS011;54230;52.402;6.276;2024-03-08T18:40:00;32.8;;;17.4;;
67344;SDS011;54230;52.402;6.276;2024-03-08T18:45:00;32.8;;;16.9;;
67344;SDS011;54230;52.402;6.276;2024-03-08T18:50:01;33.7;;;17.6;;
67344;SDS011;54230;52.402;6.276;2024-03-08T18:55:00;33.9;;;17.5;;
67344;SDS011;54230;52.402;6.276;2024-03-08T19:00:00;37.4;;;18.2;;
67344;SDS011;54230;52.402;6.276;2024-03-08T19:05:00;37.9;;;18.7;;
67344;SDS011;54230;52.402;6.276;2024-03-08T19:10:00;35.9;;;18.0;;
67344;SDS011;54230;52.402;6.276;2024-03-08T19:15:00;35.3;;;18.6;;
67344;SDS011;54230;52.402;6.276;2024-03-08T19:20:00;38.2;;;19.0;;
67344;SDS011;54230;52.402;6.276;2024-03-08T19:25:00;37.0;;;18.7;;
67344;SDS011;54230;52.402;6.276;2024-03-08T19:30:00;39.9;;;19.8;;
67344;SDS011;54230;52.402;6.276;2024-03-08T19:35:00;37.1;;;18.6;;
67344;SDS011;54230;52.402;6.276;2024-03-08T19:40:00;38.6;;;18.6;;
67344;SDS011;54230;52.402;6.276;2024-03-08T19:45:00;39.7;;;19.4;;
67344;SDS011;54230;52.402;6.276;2024-03-08T19:50:00;38.4;;;19.2;;
67344;SDS011;54230;52.402;6.276;2024-03-08T19:55:00;42.0;;;19.6;;
67344;SDS011;54230;52.402;6.276;2024-03-08T20:00:00;40.2;;;20.1;;
67344;SDS011;54230;52.402;6.276;2024-03-08T20:05:00;40.6;;;19.9;;
67344;SDS011;54230;52.402;6.276;2024-03-08T20:10:00;41.5;;;20.2;;
67344;SDS011;54230;52.402;6.276;2024-03-08T20:15:00;41.8;;;20.4;;
67344;SDS011;54230;52.402;6.276;2024-03-08T20:20:00;39.6;;;20.2;;
67344;SDS011;54230;52.402;6.276;2024-03-08T20:25:00;40.6;;;20.2;;
67344;SDS011;54230;52.402;6.276;2024-03-08T20:30:00;39.8;;;20.3;;
67344;SDS011;54230;52.402;6.276;2024-03-08T20:35:00;42.9;;;20.5;;
67344;SDS011;54230;52.402;6.276;2024-03-08T20:40:00;40.7;;;20.4;;
67344;SDS011;54230;52.402;6.276;2024-03-08T20:45:00;41.1;;;20.6;;
67344;SDS011;54230;52.402;6.276;2024-03-08T20:50:00;45.2;;;20.9;;
67344;SDS011;54230;52.402;6.276;2024-03-08T20:55:00;41.5;;;20.4;;
67344;SDS011;54230;52.402;6.276;2024-03-08T21:00:00;40.6;;;20.9;;
67344;SDS011;54230;52.402;6.276;2024-03-08T21:05:00;43.9;;;20.9;;
67344;SDS011;54230;52.402;6.276;2024-03-08T21:10:00;41.2;;;20.6;;
67344;SDS011;54230;52.402;6.276;2024-03-08T21:15:00;40.0;;;20.4;;
67344;SDS011;54230;52.402;6.276;2024-03-08T21:20:00;43.0;;;21.2;;
67344;SDS011;54230;52.402;6.276;2024-03-08T21:25:00;42.8;;;20.8;;
67344;SDS011;54230;52.402;6.276;2024-03-08T21:30:00;43.0;;;20.4;;
67344;SDS011;54230;52.402;6.276;2024-03-08T21:35:00;44.4;;;20.9;;
67344;SDS011;54230;52.402;6.276;2024-03-08T21:40:00;43.0;;;20.6;;
67344;SDS011;54230;52.402;6.276;2024-03-08T21:45:01;42.5;;;20.7;;
67344;SDS011;54230;52.402;6.276;2024-03-08T21:50:00;41.5;;;20.0;;
67344;SDS011;54230;52.402;6.276;2024-03-08T21:55:00;48.9;;;22.0;;
67344;SDS011;54230;52.402;6.276;2024-03-08T22:00:00;44.7;;;21.1;;
67344;SDS011;54230;52.402;6.276;2024-03-08T22:05:00;44.0;;;20.9;;
67344;SDS011;54230;52.402;6.276;2024-03-08T22:10:00;42.6;;;21.2;;
67344;SDS011;54230;52.402;6.276;2024-03-08T22:15:00;47.2;;;22.0;;
67344;SDS011;54230;52.402;6.276;2024-03-08T22:20:00;46.1;;;21.7;;
67344;SDS011;54230;52.402;6.276;2024-03-08T22:25:00;42.9;;;21.1;;
67344;SDS011;54230;52.402;6.276;2024-03-08T22:30:00;44.7;;;21.4;;
67344;SDS011;54230;52.402;6.276;2024-03-08T22:35:00;48.0;;;22.1;;
67344;SDS011;54230;52.402;6.276;2024-03-08T22:40:00;46.4;;;21.9;;
67344;SDS011;54230;52.402;6.276;2024-03-08T22:45:00;46.1;;;22.0;;
67344;SDS011;54230;52.402;6.276;2024-03-08T22:50:00;45.0;;;21.0;;
67344;SDS011;54230;52.402;6.276;2024-03-08T22:55:00;48.0;;;21.1;;
67344;SDS011;54230;52.402;6.276;2024-03-08T23:00:00;46.9;;;22.0;;
67344;SDS011;54230;52.402;6.276;2024-03-08T23:05:00;46.9;;;22.0;;
67344;SDS011;54230;52.402;6.276;2024-03-08T23:10:00;46.2;;;21.9;;
67344;SDS011;54230;52.402;6.276;2024-03-08T23:15:00;45.2;;;21.6;;
67344;SDS011;54230;52.402;6.276;2024-03-08T23:20:00;46.0;;;21.8;;
67344;SDS011;54230;52.402;6.276;2024-03-08T23:25:00;44.8;;;21.3;;
67344;SDS011;54230;52.402;6.276;2024-03-08T23:30:00;45.2;;;21.6;;
67344;SDS011;54230;52.402;6.276;2024-03-08T23:35:00;43.6;;;21.2;;
67344;SDS011;54230;52.402;6.276;2024-03-08T23:40:00;47.6;;;21.9;;
67344;SDS011;54230;52.402;6.276;2024-03-08T23:45:00;47.2;;;21.7;;
67344;SDS011;54230;52.402;6.276;2024-03-08T23:50:00;46.5;;;20.7;;
67344;SDS011;54230;52.402;6.276;2024-03-08T23:55:00;46.2;;;20.8;;
